AirNav   Textron
 
 340 users online  

NE01 Schutte Airport
Guide Rock, Nebraska, USA


FAA INFORMATION EFFECTIVE 20 JULY 2017

Location

FAA Identifier: NE01
Lat/Long: 40-11-41.0460N / 098-21-07.1890W
40-11.684100N / 098-21.119817W
40.1947350 / -98.3519969
(estimated)
Elevation: 1876 ft. / 571.8 m (surveyed)
Variation: 07E (1985)
From city: 8 miles NW of GUIDE ROCK, NE
Time zone: UTC -5 (UTC -6 during Standard Time)
Zip code: 68942

Airport Operations

Airport use: Private use. Permission required prior to landing
Activation date: 11/1954
Control tower: no
ARTCC: MINNEAPOLIS CENTER
FSS: COLUMBUS FLIGHT SERVICE STATION
Attendance: UNATNDD
Wind indicator: no
Segmented circle: no

Nearby radio navigation aids

VOR radial/distance  VOR name  Freq  Var
TKOr340/23.7MANKATO VORTAC109.8010E
HSIr165/24.8HASTINGS VOR/DME108.8007E

 
NDB name  Hdg/Dist  Freq  Var  ID
HEBRON268/35.132306EHJH .... .--- ....

Airport Services

Airframe service: NONE
Powerplant service: NONE

Runway Information

Runway NW/SE

Dimensions: 2500 x 125 ft. / 762 x 38 m
Surface: turf
RUNWAY NW  RUNWAY SE
Traffic pattern: leftleft

Airport Ownership and Management from official FAA records

Ownership: Privately-owned
Owner: MRS ALFRED SCHUTTE
GUIDE ROCK, NE 68942
Phone (402) 756-3462
Manager: RON SCHUTTE
1417 ROAD 2100
GUIDE ROCK, NE 68942
Phone 402-756-3462

Instrument Procedures

There are no published instrument procedures at NE01.

Some nearby airports with instrument procedures:

7V7 - Red Cloud Municipal Airport (11 nm SW)
12K - Superior Municipal Airport (16 nm SE)
KHSI - Hastings Municipal Airport (25 nm N)
08K - Harvard State Airport (30 nm NE)
K82 - Smith Center Municipal Airport (33 nm SW)
 
Loc | Ops | Rwys | IFR | FBO | Links
Com | Nav | Svcs | Stats | Notes

Silverhawk Aviation, Inc.
AirBoss

 
Area around NE01 (Schutte Airport)
 
Road maps at: MapQuest Bing Google
 
Aerial photo
No photo
 
Sectional chart

 
Airport distance calculator
Flying to Schutte Airport? Find the distance to fly.

From to NE01

Sunrise and sunset
Times for 22-Jul-2017
 Local
(UTC-5)
 Zulu
(UTC)
Morning civil twilight05:5210:52
Sunrise06:2311:23
Sunset20:5601:56
Evening civil twilight21:2802:28

Current date and time
Zulu (UTC)  22-Jul-2017 10:17:40
Local (UTC-5)  22-Jul-2017 05:17:40
 
METAR
KHSI 
25nm N 
221000Z AUTO 29004KT 10SM CLR 24/20 A2986 RMK AO2 LTG DSNT NE T02390200
KHJH 
35nm E 
220955Z AUTO 20010KT 10SM CLR 25/17 A2979 RMK AO2 T02480174
KEAR 
43nm NW 
220956Z AUTO 34005KT 10SM CLR 24/21 A2987 RMK AO2 SLP089 T02440206
KAUH 
44nm N 
220955Z AUTO 35007KT 10SM SCT100 23/20 A2983 RMK AO2 LTG DSNT SW T02250202
KGRI 
46nm N 
220953Z AUTO 31006KT 10SM CLR 23/21 A2985 RMK AO2 LTG DSNT SE AND S SLP089 T02280206
KHDE 
47nm W 
220955Z AUTO 34008KT 10SM CLR 24/14 A2987 RMK AO2 T02410144
TAF
KEAR 
43nm NW 
220533Z 2206/2306 VRB04KT P6SM SCT200 FM221400 02008KT P6SM SCT200 FM221900 06011KT P6SM VCTS SCT050CB BKN100 FM230000 07007KT P6SM BKN200 FM230200 VRB04KT P6SM BKN200
KGRI 
46nm N 
220533Z 2206/2306 VRB05KT P6SM SCT250 FM221500 03009KT P6SM SCT200 FM221900 06007KT P6SM VCTS SCT050CB BKN100 FM230200 VRB03KT P6SM BKN200
NOTAMs
Click for the latest NOTAMs
NOTAMs are issued by the DoD/FAA and will open in a separate window not controlled by AirNav.

 

 
 

Would you like to see your business listed on this page?

 If your business provides an interesting product or service to pilots, flight crews, aircraft, or users of the Schutte Airport, you should consider listing it here.  To start the listing process, click on the button below
 
Add a business
 

Other Pages about Schutte Airport

Update a link
 
Copyright © AirNav, LLC. All rights reserved. Privacy Policy  Contact